createdAt,value
2023-04-18T00:00:29.076Z,6.98
2023-04-18T00:02:56.252Z,6.96
2023-04-18T00:05:23.456Z,6.94
2023-04-18T00:07:51.679Z,6.92
2023-04-18T00:10:18.820Z,6.87
2023-04-18T00:12:45.660Z,6.79
2023-04-18T00:15:12.941Z,6.80
2023-04-18T00:17:40.003Z,6.75
2023-04-18T00:20:10.724Z,6.71
2023-04-18T00:22:42.728Z,6.70
2023-04-18T00:25:10.715Z,6.66
2023-04-18T00:27:39.413Z,6.63
2023-04-18T00:30:07.357Z,6.62
2023-04-18T00:32:34.308Z,6.59
2023-04-18T00:35:01.235Z,6.53
2023-04-18T00:37:29.095Z,6.49
2023-04-18T00:39:56.194Z,6.46
2023-04-18T00:42:23.052Z,6.42
2023-04-18T00:44:49.906Z,6.36
2023-04-18T00:47:17.674Z,6.29
2023-04-18T00:49:45.440Z,6.26
2023-04-18T00:52:12.645Z,6.22
2023-04-18T00:54:40.905Z,6.16
2023-04-18T00:57:08.112Z,6.10
2023-04-18T00:59:35.834Z,6.04
2023-04-18T01:02:06.017Z,5.98
2023-04-18T01:04:36.078Z,5.96
2023-04-18T01:07:03.498Z,5.93
2023-04-18T01:09:30.848Z,5.88
2023-04-18T01:11:57.689Z,5.87
2023-04-18T01:14:24.396Z,5.82
2023-04-18T01:16:51.236Z,5.80
2023-04-18T01:19:18.442Z,5.76
2023-04-18T01:21:45.645Z,5.72
2023-04-18T01:24:15.207Z,5.72
2023-04-18T01:26:44.271Z,5.70
2023-04-18T01:29:11.839Z,5.69
2023-04-18T01:31:39.766Z,5.68
2023-04-18T01:34:07.507Z,5.67
2023-04-18T01:36:36.882Z,5.64
2023-04-18T01:39:03.961Z,5.60
2023-04-18T01:41:32.828Z,5.57
2023-04-18T01:44:00.313Z,5.53
2023-04-18T01:46:28.153Z,5.49
2023-04-18T01:48:55.763Z,5.47
2023-04-18T01:51:22.955Z,5.46
2023-04-18T01:53:50.115Z,5.43
2023-04-18T01:56:17.219Z,5.42
2023-04-18T01:58:44.144Z,5.40
2023-04-18T02:01:11.042Z,5.37
2023-04-18T02:03:38.057Z,5.32
2023-04-18T02:06:05.898Z,5.32
2023-04-18T02:08:35.853Z,5.30
2023-04-18T02:11:03.558Z,5.28
2023-04-18T02:13:30.506Z,5.26
2023-04-18T02:15:57.429Z,5.22
2023-04-18T02:18:25.643Z,5.18
2023-04-18T02:20:52.629Z,5.14
2023-04-18T02:23:19.577Z,5.11
2023-04-18T02:25:46.460Z,5.08
2023-04-18T02:28:13.457Z,5.06
2023-04-18T02:30:40.240Z,5.04
2023-04-18T02:33:07.053Z,5.02
2023-04-18T02:35:33.936Z,4.98
2023-04-18T02:38:00.802Z,4.95
2023-04-18T02:40:27.775Z,4.91
2023-04-18T02:42:54.555Z,4.88
2023-04-18T02:45:21.392Z,4.84
2023-04-18T02:47:55.538Z,4.81
2023-04-18T02:50:24.276Z,4.77
2023-04-18T02:52:51.137Z,4.76
2023-04-18T02:55:18.032Z,4.73
2023-04-18T02:57:44.778Z,4.71
2023-04-18T03:00:13.670Z,4.66
2023-04-18T03:02:40.653Z,4.64
2023-04-18T03:05:07.917Z,4.60
2023-04-18T03:07:34.749Z,4.56
2023-04-18T03:10:01.611Z,4.54
2023-04-18T03:12:28.505Z,4.53
2023-04-18T03:14:55.312Z,4.51
2023-04-18T03:17:22.266Z,4.49
2023-04-18T03:19:49.223Z,4.47
2023-04-18T03:22:16.375Z,4.44
2023-04-18T03:24:43.159Z,4.40
2023-04-18T03:27:09.983Z,4.39
2023-04-18T03:29:36.783Z,4.36
2023-04-18T03:32:03.647Z,4.33
2023-04-18T03:34:30.816Z,4.31
2023-04-18T03:36:57.622Z,4.29
2023-04-18T03:39:24.412Z,4.26
2023-04-18T03:41:52.352Z,4.23
2023-04-18T03:44:19.167Z,4.20
2023-04-18T03:46:46.112Z,4.18
2023-04-18T03:49:12.874Z,4.18
2023-04-18T03:51:44.537Z,4.17
2023-04-18T03:54:11.513Z,4.15
2023-04-18T03:56:38.600Z,4.13
2023-04-18T03:59:05.436Z,4.13
2023-04-18T04:01:32.274Z,4.14
2023-04-18T04:03:59.349Z,4.18
2023-04-18T04:06:26.408Z,4.24
2023-04-18T04:08:53.293Z,4.30
2023-04-18T04:11:20.150Z,4.35
2023-04-18T04:13:46.945Z,4.40
2023-04-18T04:16:13.834Z,4.45
2023-04-18T04:18:40.784Z,4.49
2023-04-18T04:21:07.584Z,4.54
2023-04-18T04:23:34.468Z,4.57
2023-04-18T04:26:04.681Z,4.61
2023-04-18T04:28:31.747Z,4.65
2023-04-18T04:30:58.528Z,4.67
2023-04-18T04:33:28.869Z,4.70
2023-04-18T04:35:56.642Z,4.72
2023-04-18T04:38:23.543Z,4.74
2023-04-18T04:40:51.074Z,4.76
2023-04-18T04:43:20.722Z,4.82
2023-04-18T04:45:54.369Z,4.84
2023-04-18T04:48:22.292Z,4.86
2023-04-18T04:50:56.976Z,4.90
2023-04-18T04:53:25.817Z,4.93
2023-04-18T04:55:52.752Z,4.95
2023-04-18T04:58:20.016Z,4.98
2023-04-18T05:00:47.260Z,5.00
2023-04-18T05:03:14.268Z,5.03
2023-04-18T05:05:41.610Z,5.07
2023-04-18T05:08:08.472Z,5.08
2023-04-18T05:10:37.305Z,5.09
2023-04-18T05:13:04.534Z,5.13
2023-04-18T05:15:31.833Z,5.14
2023-04-18T05:17:59.076Z,5.15
2023-04-18T05:20:25.930Z,5.17
2023-04-18T05:22:52.746Z,5.20
2023-04-18T05:25:20.141Z,5.23
2023-04-18T05:27:47.330Z,5.26
2023-04-18T05:30:14.664Z,5.31
2023-04-18T05:32:41.762Z,5.33
2023-04-18T05:35:09.586Z,5.35
2023-04-18T05:37:36.526Z,5.37
2023-04-18T05:40:05.216Z,5.38
2023-04-18T05:42:32.109Z,5.40
2023-04-18T05:44:58.998Z,5.44
2023-04-18T05:47:28.677Z,5.47
2023-04-18T05:49:56.094Z,5.54
2023-04-18T05:52:23.061Z,5.57
2023-04-18T05:54:49.980Z,5.64
2023-04-18T05:57:16.895Z,5.69
2023-04-18T05:59:43.778Z,5.74
2023-04-18T06:02:13.839Z,5.79
2023-04-18T06:04:42.152Z,5.86
2023-04-18T06:07:09.967Z,5.88
2023-04-18T06:09:37.108Z,5.94
2023-04-18T06:12:04.433Z,5.98
2023-04-18T06:14:31.415Z,6.04
2023-04-18T06:16:58.437Z,6.08
2023-04-18T06:19:25.451Z,6.15
2023-04-18T06:21:53.380Z,6.23
2023-04-18T06:24:20.215Z,6.34
2023-04-18T06:26:47.459Z,6.44
2023-04-18T06:29:14.439Z,6.55
2023-04-18T06:31:42.358Z,6.73
2023-04-18T06:34:09.608Z,6.87
2023-04-18T06:36:36.863Z,6.94
2023-04-18T06:39:04.058Z,7.11
2023-04-18T06:41:31.695Z,7.27
2023-04-18T06:46:28.377Z,7.41
2023-04-18T06:48:55.264Z,7.54
2023-04-18T06:51:22.293Z,7.62
2023-04-18T06:53:52.875Z,7.62
2023-04-18T06:56:22.907Z,7.59
2023-04-18T06:58:50.059Z,7.59
2023-04-18T07:01:17.003Z,7.65
2023-04-18T07:03:44.090Z,7.76
2023-04-18T07:06:11.235Z,7.89
2023-04-18T07:08:38.393Z,7.90
2023-04-18T07:11:06.806Z,7.93
2023-04-18T07:13:33.702Z,7.93
2023-04-18T07:16:01.709Z,7.89
2023-04-18T07:18:37.635Z,7.84
2023-04-18T07:21:08.946Z,7.88
2023-04-18T07:23:36.928Z,7.92
2023-04-18T07:26:05.858Z,7.86
2023-04-18T07:28:33.265Z,7.94
2023-04-18T07:31:01.404Z,8.01
2023-04-18T07:33:31.812Z,8.21
2023-04-18T07:35:58.797Z,8.35
2023-04-18T07:38:25.620Z,8.44
2023-04-18T07:40:59.499Z,8.50
2023-04-18T07:43:27.065Z,8.56
2023-04-18T07:45:54.540Z,8.64
2023-04-18T07:48:22.730Z,8.86
2023-04-18T07:50:49.850Z,9.27
2023-04-18T07:53:17.189Z,9.39
2023-04-18T07:55:44.091Z,9.45
2023-04-18T07:58:11.322Z,9.59
2023-04-18T08:00:42.744Z,9.71
2023-04-18T08:03:13.196Z,9.68
2023-04-18T08:05:42.350Z,9.86
2023-04-18T08:08:10.615Z,9.96
2023-04-18T08:10:37.563Z,10.10
2023-04-18T08:13:04.783Z,10.26
2023-04-18T08:15:33.096Z,10.26
2023-04-18T08:18:01.504Z,10.28
2023-04-18T08:20:28.630Z,10.34
2023-04-18T08:25:25.177Z,10.24
2023-04-18T08:27:52.030Z,10.32
2023-04-18T08:30:19.073Z,10.35
2023-04-18T08:32:46.163Z,10.38
2023-04-18T08:35:13.165Z,10.26
2023-04-18T08:37:40.022Z,10.11
2023-04-18T08:40:07.646Z,10.04
2023-04-18T08:42:35.783Z,10.13
2023-04-18T08:45:02.886Z,10.18
2023-04-18T08:47:30.231Z,10.38
2023-04-18T08:49:58.657Z,10.44
2023-04-18T08:52:27.323Z,10.55
2023-04-18T08:54:54.272Z,10.74
2023-04-18T08:57:27.297Z,10.69
2023-04-18T08:59:55.583Z,10.84
2023-04-18T09:02:35.288Z,10.70
2023-04-18T09:05:11.412Z,10.84
2023-04-18T09:07:38.300Z,10.98
2023-04-18T09:10:05.794Z,11.13
2023-04-18T09:12:32.740Z,10.94
2023-04-18T09:15:15.952Z,10.87
2023-04-18T09:17:54.203Z,10.99
2023-04-18T09:20:34.997Z,11.48
2023-04-18T09:23:11.212Z,11.70
2023-04-18T09:25:51.103Z,11.54
2023-04-18T09:28:27.208Z,11.73
2023-04-18T09:30:58.684Z,11.70
2023-04-18T09:33:32.744Z,11.55
2023-04-18T09:36:19.415Z,11.84
2023-04-18T09:38:52.522Z,11.82
2023-04-18T09:41:22.605Z,11.90
2023-04-18T09:43:49.716Z,11.90
2023-04-18T09:46:17.957Z,11.91
2023-04-18T09:48:45.041Z,11.91
2023-04-18T09:51:15.970Z,11.87
2023-04-18T09:53:44.881Z,11.67
2023-04-18T09:56:28.148Z,11.55
2023-04-18T09:59:09.374Z,11.82
2023-04-18T10:01:36.951Z,11.98
2023-04-18T10:04:06.940Z,12.17
2023-04-18T10:06:35.639Z,12.27
2023-04-18T10:09:06.585Z,12.20
2023-04-18T10:11:33.655Z,12.08
2023-04-18T10:14:08.557Z,11.98
2023-04-18T10:16:36.444Z,11.92
2023-04-18T10:19:29.704Z,11.93
2023-04-18T10:22:01.631Z,11.99
2023-04-18T10:24:57.133Z,12.33
2023-04-18T10:27:48.846Z,12.58
2023-04-18T10:30:17.020Z,12.58
2023-04-18T10:32:46.061Z,12.56
2023-04-18T10:35:13.056Z,12.49
2023-04-18T10:37:52.484Z,12.42
2023-04-18T10:40:34.430Z,12.30
2023-04-18T10:43:01.814Z,12.56
2023-04-18T10:45:31.416Z,13.00
2023-04-18T10:48:30.353Z,13.29
2023-04-18T10:51:18.864Z,13.69
2023-04-18T10:53:52.869Z,13.36
2023-04-18T10:56:20.125Z,13.14
2023-04-18T10:58:51.554Z,13.13
2023-04-18T11:01:31.782Z,13.11
2023-04-18T11:04:00.673Z,12.80
2023-04-18T11:06:28.055Z,12.61
2023-04-18T11:09:14.450Z,12.44
2023-04-18T11:11:42.570Z,12.46
2023-04-18T11:14:09.667Z,12.71
2023-04-18T11:16:36.882Z,12.73
2023-04-18T11:19:21.402Z,12.74
2023-04-18T11:21:48.411Z,12.86
2023-04-18T11:24:24.841Z,12.68
2023-04-18T11:26:56.177Z,12.61
2023-04-18T11:29:23.605Z,12.47
2023-04-18T11:31:56.805Z,12.34
2023-04-18T11:34:30.891Z,12.39
2023-04-18T11:36:58.244Z,12.32
2023-04-18T11:39:25.694Z,12.19
2023-04-18T11:41:52.879Z,12.17
2023-04-18T11:44:26.950Z,12.35
2023-04-18T11:46:54.206Z,12.62
2023-04-18T11:49:28.618Z,13.15
2023-04-18T11:51:56.317Z,13.07
2023-04-18T11:54:35.922Z,13.02
2023-04-18T11:57:03.677Z,12.81
2023-04-18T11:59:30.799Z,12.79
2023-04-18T12:02:14.778Z,12.90
2023-04-18T12:05:00.391Z,12.89
2023-04-18T12:07:40.042Z,12.97
2023-04-18T12:10:20.220Z,13.03
2023-04-18T12:12:54.814Z,13.18
2023-04-18T12:15:28.294Z,13.27
2023-04-18T12:18:00.744Z,13.31
2023-04-18T12:20:39.057Z,13.29
2023-04-18T12:23:06.889Z,13.33
2023-04-18T12:25:35.038Z,13.49
2023-04-18T12:28:15.896Z,13.63
2023-04-18T12:30:42.970Z,13.72
2023-04-18T12:33:09.945Z,13.72
2023-04-18T12:35:36.937Z,13.66
2023-04-18T12:38:05.248Z,13.67
2023-04-18T12:40:32.191Z,13.71
2023-04-18T12:43:00.517Z,13.67
2023-04-18T12:45:29.436Z,13.68
2023-04-18T12:47:56.308Z,13.45
2023-04-18T12:50:25.546Z,13.45
2023-04-18T12:52:54.060Z,13.44
2023-04-18T12:55:22.831Z,13.36
2023-04-18T12:57:51.992Z,13.27
2023-04-18T13:00:18.862Z,13.12
2023-04-18T13:02:46.213Z,13.14
2023-04-18T13:05:14.750Z,13.04
2023-04-18T13:07:42.819Z,12.95
2023-04-18T13:10:11.196Z,12.89
2023-04-18T13:12:41.656Z,12.87
2023-04-18T13:15:09.900Z,12.91
2023-04-18T13:17:38.167Z,12.93
2023-04-18T13:20:13.124Z,12.92
2023-04-18T13:22:41.145Z,13.02
2023-04-18T13:25:10.883Z,13.02
2023-04-18T13:27:41.379Z,13.07
2023-04-18T13:30:12.147Z,13.16
2023-04-18T13:32:40.962Z,13.16
2023-04-18T13:35:11.254Z,13.15
2023-04-18T13:37:39.177Z,13.18
2023-04-18T13:40:07.147Z,13.26
2023-04-18T13:42:35.914Z,13.40
2023-04-18T13:45:03.452Z,13.69
2023-04-18T13:47:30.542Z,13.94
2023-04-18T13:49:58.072Z,13.92
2023-04-18T13:52:25.264Z,13.96
2023-04-18T13:54:52.153Z,14.07
2023-04-18T13:57:19.071Z,14.10
2023-04-18T13:59:45.901Z,14.51
2023-04-18T14:02:12.895Z,15.07
2023-04-18T14:04:39.984Z,15.38
2023-04-18T14:07:08.214Z,15.43
2023-04-18T14:09:35.263Z,15.18
2023-04-18T14:12:02.299Z,15.04
2023-04-18T14:14:29.706Z,15.14
2023-04-18T14:16:56.718Z,15.16
2023-04-18T14:19:24.081Z,15.58
2023-04-18T14:21:51.060Z,15.16
2023-04-18T14:24:18.132Z,15.02
2023-04-18T14:26:45.115Z,14.90
2023-04-18T14:29:12.295Z,14.60
2023-04-18T14:31:39.440Z,14.37
2023-04-18T14:34:08.408Z,14.18
2023-04-18T14:36:36.056Z,14.09
2023-04-18T14:39:03.659Z,14.22
2023-04-18T14:41:30.724Z,14.52
2023-04-18T14:43:57.732Z,14.23
2023-04-18T14:46:25.458Z,13.97
2023-04-18T14:48:52.265Z,14.23
2023-04-18T14:51:19.254Z,14.56
2023-04-18T14:53:46.382Z,14.62
2023-04-18T14:56:13.773Z,14.58
2023-04-18T14:58:40.625Z,14.45
2023-04-18T15:01:07.472Z,14.16
2023-04-18T15:03:34.743Z,14.07
2023-04-18T15:06:01.834Z,14.19
2023-04-18T15:08:31.339Z,14.25
2023-04-18T15:10:59.548Z,14.41
2023-04-18T15:13:26.548Z,14.48
2023-04-18T15:15:54.259Z,14.48
2023-04-18T15:18:21.504Z,14.46
2023-04-18T15:20:48.650Z,14.34
2023-04-18T15:23:16.098Z,14.43
2023-04-18T15:25:44.714Z,14.50
2023-04-18T15:28:13.593Z,14.32
2023-04-18T15:30:40.885Z,14.19
2023-04-18T15:33:08.617Z,14.10
2023-04-18T15:35:36.144Z,14.07
2023-04-18T15:38:03.041Z,14.07
2023-04-18T15:40:30.485Z,14.08
2023-04-18T15:42:59.691Z,14.09
2023-04-18T15:45:26.675Z,13.96
2023-04-18T15:47:53.600Z,13.96
2023-04-18T15:50:20.735Z,14.06
2023-04-18T15:52:47.710Z,13.97
2023-04-18T15:55:14.864Z,14.01
2023-04-18T15:57:42.175Z,14.04
2023-04-18T16:00:16.010Z,13.99
2023-04-18T16:02:46.719Z,13.99
2023-04-18T16:05:14.370Z,14.02
2023-04-18T16:07:42.442Z,14.05
2023-04-18T16:10:11.257Z,14.04
2023-04-18T16:12:39.660Z,14.09
2023-04-18T16:15:08.695Z,14.20
2023-04-18T16:17:39.018Z,14.28
2023-04-18T16:20:08.435Z,14.26
2023-04-18T16:22:35.412Z,14.25
2023-04-18T16:25:02.420Z,14.12
2023-04-18T16:27:29.320Z,14.00
2023-04-18T16:29:56.121Z,13.86
2023-04-18T16:32:23.176Z,13.73
2023-04-18T16:34:49.997Z,13.65
2023-04-18T16:37:16.812Z,13.62
2023-04-18T16:39:43.661Z,13.67
2023-04-18T16:42:10.467Z,13.67
2023-04-18T16:44:37.440Z,13.67
2023-04-18T16:47:05.248Z,13.64
2023-04-18T16:49:32.176Z,13.61
2023-04-18T16:51:59.163Z,13.58
2023-04-18T16:54:26.179Z,13.51
2023-04-18T16:56:53.265Z,13.59
2023-04-18T16:59:20.140Z,13.64
2023-04-18T17:01:47.108Z,13.64
2023-04-18T17:04:15.522Z,13.66
2023-04-18T17:06:43.897Z,13.67
2023-04-18T17:09:13.664Z,13.57
2023-04-18T17:11:41.482Z,13.47
2023-04-18T17:14:08.857Z,13.39
2023-04-18T17:16:39.794Z,13.31
2023-04-18T17:19:07.262Z,13.22
2023-04-18T17:21:35.236Z,13.16
2023-04-18T17:24:04.191Z,13.11
2023-04-18T17:26:31.483Z,13.04
2023-04-18T17:28:58.479Z,13.00
2023-04-18T17:31:25.499Z,13.02
2023-04-18T17:33:53.070Z,13.07
2023-04-18T17:36:20.067Z,13.09
2023-04-18T17:38:50.127Z,13.11
2023-04-18T17:41:18.505Z,13.07
2023-04-18T17:43:46.424Z,13.04
2023-04-18T17:46:14.286Z,12.98
2023-04-18T17:48:41.615Z,12.89
2023-04-18T17:51:08.511Z,12.87
2023-04-18T17:53:35.490Z,12.82
2023-04-18T17:56:03.750Z,12.78
2023-04-18T17:58:30.717Z,12.69
2023-04-18T18:00:57.778Z,12.64
2023-04-18T18:03:24.851Z,12.57
2023-04-18T18:05:52.010Z,12.52
2023-04-18T18:08:18.902Z,12.46
2023-04-18T18:10:47.153Z,12.38
2023-04-18T18:13:14.128Z,12.32
2023-04-18T18:15:41.091Z,12.24
2023-04-18T18:18:08.112Z,12.18
2023-04-18T18:20:35.121Z,12.10
2023-04-18T18:23:02.978Z,12.05
2023-04-18T18:25:30.517Z,12.02
2023-04-18T18:27:57.427Z,11.96
2023-04-18T18:30:24.279Z,11.92
2023-04-18T18:32:51.477Z,11.88
2023-04-18T18:35:18.383Z,11.81
2023-04-18T18:37:45.301Z,11.76
2023-04-18T18:40:13.210Z,11.72
2023-04-18T18:42:40.252Z,11.64
2023-04-18T18:45:07.924Z,11.58
2023-04-18T18:47:35.822Z,11.56
2023-04-18T18:50:04.759Z,11.49
2023-04-18T18:52:32.777Z,11.44
2023-04-18T18:55:01.411Z,11.37
2023-04-18T18:57:28.426Z,11.30
2023-04-18T18:59:55.934Z,11.24
2023-04-18T19:02:23.469Z,11.18
2023-04-18T19:04:50.511Z,11.14
2023-04-18T19:07:17.440Z,11.09
2023-04-18T19:09:45.869Z,11.03
2023-04-18T19:12:12.811Z,10.96
2023-04-18T19:14:40.693Z,10.89
2023-04-18T19:17:09.240Z,10.84
2023-04-18T19:19:36.403Z,10.77
2023-04-18T19:22:03.290Z,10.74
2023-04-18T19:24:32.099Z,10.71
2023-04-18T19:26:59.821Z,10.67
2023-04-18T19:29:26.955Z,10.65
2023-04-18T19:31:54.027Z,10.62
2023-04-18T19:34:22.311Z,10.58
2023-04-18T19:36:49.322Z,10.54
2023-04-18T19:39:16.578Z,10.53
2023-04-18T19:41:43.729Z,10.51
2023-04-18T19:44:10.635Z,10.46
2023-04-18T19:46:37.736Z,10.42
2023-04-18T19:49:04.599Z,10.35
2023-04-18T19:51:31.519Z,10.29
2023-04-18T19:53:58.375Z,10.25
2023-04-18T19:56:25.371Z,10.23
2023-04-18T19:58:52.365Z,10.21
2023-04-18T20:01:20.419Z,10.15
2023-04-18T20:03:48.351Z,10.08
2023-04-18T20:06:17.206Z,10.01
2023-04-18T20:08:46.005Z,9.98
2023-04-18T20:11:16.498Z,9.96
2023-04-18T20:13:43.444Z,9.93
2023-04-18T20:16:11.194Z,9.91
2023-04-18T20:18:39.594Z,9.88
2023-04-18T20:21:07.816Z,9.85
2023-04-18T20:23:38.322Z,9.82
2023-04-18T20:26:05.263Z,9.77
2023-04-18T20:28:32.463Z,9.73
2023-04-18T20:30:59.515Z,9.67
2023-04-18T20:33:26.470Z,9.64
2023-04-18T20:35:54.810Z,9.63
2023-04-18T20:38:25.863Z,9.60
2023-04-18T20:40:54.295Z,9.56
2023-04-18T20:43:21.841Z,9.54
2023-04-18T20:45:51.658Z,9.51
2023-04-18T20:48:18.772Z,9.46
2023-04-18T20:50:51.322Z,9.44
2023-04-18T20:53:22.570Z,9.40
2023-04-18T20:55:49.433Z,9.37
2023-04-18T20:58:16.913Z,9.32
2023-04-18T21:00:46.825Z,9.28
2023-04-18T21:03:14.240Z,9.25
2023-04-18T21:05:41.489Z,9.19
2023-04-18T21:08:08.322Z,9.18
2023-04-18T21:10:35.102Z,9.20
2023-04-18T21:13:01.974Z,9.17
2023-04-18T21:15:28.845Z,9.11
2023-04-18T21:17:56.088Z,9.08
2023-04-18T21:20:23.042Z,9.07
2023-04-18T21:22:49.871Z,9.04
2023-04-18T21:25:17.048Z,9.05
2023-04-18T21:27:43.865Z,9.02
2023-04-18T21:30:11.035Z,8.97
2023-04-18T21:32:37.951Z,8.95
2023-04-18T21:35:05.114Z,8.92
2023-04-18T21:37:32.364Z,8.91
2023-04-18T21:39:59.169Z,8.88
2023-04-18T21:42:27.022Z,8.85
2023-04-18T21:44:54.979Z,8.83
2023-04-18T21:47:22.246Z,8.81
2023-04-18T21:49:49.453Z,8.78
2023-04-18T21:52:16.497Z,8.75
2023-04-18T21:54:43.308Z,8.71
2023-04-18T21:57:10.110Z,8.73
2023-04-18T21:59:39.635Z,8.71
2023-04-18T22:02:06.881Z,8.70
2023-04-18T22:04:35.052Z,8.69
2023-04-18T22:07:02.533Z,8.66
2023-04-18T22:09:29.844Z,8.67
2023-04-18T22:11:57.080Z,8.66
2023-04-18T22:14:24.935Z,8.65
2023-04-18T22:16:51.940Z,8.61
2023-04-18T22:19:19.298Z,8.58
2023-04-18T22:21:46.632Z,8.57
2023-04-18T22:24:13.576Z,8.54
2023-04-18T22:26:41.038Z,8.54
2023-04-18T22:29:07.882Z,8.51
2023-04-18T22:31:34.668Z,8.48
2023-04-18T22:34:01.530Z,8.48
2023-04-18T22:36:28.511Z,8.48
2023-04-18T22:38:55.443Z,8.46
2023-04-18T22:41:22.231Z,8.40
2023-04-18T22:43:49.119Z,8.38
2023-04-18T22:46:16.024Z,8.37
2023-04-18T22:48:44.943Z,8.34
2023-04-18T22:51:11.892Z,8.28
2023-04-18T22:53:38.698Z,8.26
2023-04-18T22:56:05.774Z,8.21
2023-04-18T22:58:32.741Z,8.19
2023-04-18T23:00:59.806Z,8.18
2023-04-18T23:03:26.743Z,8.16
2023-04-18T23:05:53.789Z,8.13
2023-04-18T23:08:22.713Z,8.10
2023-04-18T23:10:49.608Z,8.06
2023-04-18T23:13:16.389Z,8.05
2023-04-18T23:15:43.305Z,8.04
2023-04-18T23:18:10.272Z,7.99
2023-04-18T23:20:37.943Z,7.97
2023-04-18T23:23:04.812Z,7.93
2023-04-18T23:25:34.394Z,7.90
2023-04-18T23:28:01.297Z,7.89
2023-04-18T23:30:28.028Z,7.92
2023-04-18T23:32:54.836Z,7.90
2023-04-18T23:35:21.849Z,7.90
2023-04-18T23:37:48.783Z,7.90
2023-04-18T23:40:15.565Z,7.92
2023-04-18T23:42:42.360Z,7.93
2023-04-18T23:45:09.317Z,7.93
2023-04-18T23:47:36.673Z,7.91
2023-04-18T23:50:03.697Z,7.92
2023-04-18T23:52:30.639Z,7.91
2023-04-18T23:55:01.004Z,7.88
2023-04-18T23:57:28.081Z,7.87
2023-04-18T23:59:54.852Z,7.87
